createdAt,value
2017-05-04T00:00:55.740Z,87.57
2017-05-04T00:03:23.191Z,87.55
2017-05-04T00:05:50.633Z,87.57
2017-05-04T00:08:18.112Z,87.42
2017-05-04T00:10:45.563Z,87.62
2017-05-04T00:13:13.019Z,87.58
2017-05-04T00:15:40.484Z,87.50
2017-05-04T00:18:07.919Z,87.50
2017-05-04T00:20:35.363Z,87.37
2017-05-04T00:23:02.826Z,87.50
2017-05-04T00:25:30.267Z,87.38
2017-05-04T00:27:57.749Z,87.24
2017-05-04T00:30:25.236Z,87.13
2017-05-04T00:32:52.691Z,87.13
2017-05-04T00:35:20.282Z,87.19
2017-05-04T00:37:47.743Z,87.13
2017-05-04T00:40:15.185Z,87.22
2017-05-04T00:42:42.635Z,87.35
2017-05-04T00:45:10.110Z,87.22
2017-05-04T00:47:37.559Z,87.20
2017-05-04T00:50:04.998Z,87.18
2017-05-04T00:52:32.462Z,87.12
2017-05-04T00:54:59.907Z,87.23
2017-05-04T00:57:27.346Z,87.38
2017-05-04T00:59:54.808Z,87.30
2017-05-04T01:02:22.277Z,87.24
2017-05-04T01:04:49.705Z,87.41
2017-05-04T01:07:17.171Z,87.36
2017-05-04T01:09:44.611Z,87.48
2017-05-04T01:12:12.053Z,87.51
2017-05-04T01:14:39.517Z,87.44
2017-05-04T01:17:06.954Z,87.34
2017-05-04T01:19:34.407Z,87.16
2017-05-04T01:22:01.856Z,87.14
2017-05-04T01:24:29.306Z,87.09
2017-05-04T01:26:56.742Z,87.06
2017-05-04T01:29:24.222Z,87.22
2017-05-04T01:31:51.734Z,87.16
2017-05-04T01:34:19.182Z,87.19
2017-05-04T01:36:46.630Z,87.46
2017-05-04T01:39:14.077Z,87.52
2017-05-04T01:41:41.520Z,87.16
2017-05-04T01:44:08.994Z,87.33
2017-05-04T01:46:36.443Z,87.47
2017-05-04T01:49:03.895Z,87.33
2017-05-04T01:51:31.370Z,87.37
2017-05-04T01:53:58.807Z,87.11
2017-05-04T01:56:26.253Z,87.22
2017-05-04T01:58:53.733Z,87.43
2017-05-04T02:01:21.198Z,87.19
2017-05-04T02:03:48.630Z,87.21
2017-05-04T02:06:16.085Z,87.44
2017-05-04T02:08:43.534Z,87.79
2017-05-04T02:11:10.985Z,87.92
2017-05-04T02:13:38.484Z,87.85
2017-05-04T02:16:05.915Z,87.90
2017-05-04T02:18:33.361Z,87.61
2017-05-04T02:21:00.817Z,87.69
2017-05-04T02:23:28.272Z,87.87
2017-05-04T02:25:55.738Z,87.82
2017-05-04T02:28:23.210Z,87.89
2017-05-04T02:30:50.670Z,87.86
2017-05-04T02:33:18.117Z,87.88
2017-05-04T02:35:45.581Z,87.64
2017-05-04T02:38:13.017Z,87.62
2017-05-04T02:40:40.459Z,87.90
2017-05-04T02:43:07.915Z,87.97
2017-05-04T02:45:35.354Z,88.04
2017-05-04T02:48:02.786Z,88.17
2017-05-04T02:50:30.234Z,88.00
2017-05-04T02:52:57.685Z,88.25
2017-05-04T02:55:25.124Z,87.93
2017-05-04T02:57:52.602Z,87.82
2017-05-04T03:00:20.045Z,88.00
2017-05-04T03:02:47.478Z,87.86
2017-05-04T03:05:14.952Z,87.96
2017-05-04T03:07:42.391Z,87.91
2017-05-04T03:10:10.094Z,87.84
2017-05-04T03:12:37.558Z,87.97
2017-05-04T03:15:05.007Z,88.14
2017-05-04T03:17:32.466Z,87.98
2017-05-04T03:19:59.929Z,87.88
2017-05-04T03:22:27.369Z,87.76
2017-05-04T03:24:54.815Z,87.70
2017-05-04T03:27:22.346Z,87.64
2017-05-04T03:29:49.782Z,87.46
2017-05-04T03:32:17.271Z,87.67
2017-05-04T03:34:44.743Z,87.61
2017-05-04T03:37:12.190Z,87.54
2017-05-04T03:39:39.640Z,87.74
2017-05-04T03:42:07.117Z,87.63
2017-05-04T03:44:34.586Z,87.54
2017-05-04T03:47:02.045Z,87.43
2017-05-04T03:49:29.527Z,87.40
2017-05-04T03:51:57.018Z,87.68
2017-05-04T03:54:24.461Z,87.52
2017-05-04T03:56:51.927Z,87.72
2017-05-04T03:59:19.364Z,87.76
2017-05-04T04:01:46.802Z,87.74
2017-05-04T04:04:14.267Z,87.71
2017-05-04T04:06:41.693Z,87.67
2017-05-04T04:09:09.137Z,87.44
2017-05-04T04:11:36.586Z,87.29
2017-05-04T04:14:04.018Z,87.25
2017-05-04T04:16:31.460Z,87.45
2017-05-04T04:18:58.930Z,87.58
2017-05-04T04:21:26.378Z,87.63
2017-05-04T04:23:53.817Z,87.76
2017-05-04T04:26:21.284Z,87.86
2017-05-04T04:28:48.719Z,87.94
2017-05-04T04:31:16.153Z,88.11
2017-05-04T04:33:43.607Z,87.96
2017-05-04T04:36:11.042Z,88.00
2017-05-04T04:38:38.481Z,87.84
2017-05-04T04:41:05.934Z,87.89
2017-05-04T04:43:33.363Z,87.82
2017-05-04T04:46:00.808Z,87.75
2017-05-04T04:48:28.274Z,87.55
2017-05-04T04:50:55.710Z,87.63
2017-05-04T04:53:23.139Z,87.72
2017-05-04T04:55:50.610Z,87.81
2017-05-04T04:58:18.041Z,87.96
2017-05-04T05:00:45.476Z,87.79
2017-05-04T05:03:12.947Z,87.74
2017-05-04T05:05:40.386Z,87.75
2017-05-04T05:08:07.830Z,87.58
2017-05-04T05:10:35.293Z,87.60
2017-05-04T05:13:02.727Z,87.85
2017-05-04T05:15:30.158Z,87.79
2017-05-04T05:17:57.616Z,87.62
2017-05-04T05:20:25.058Z,87.62
2017-05-04T05:22:52.506Z,87.61
2017-05-04T05:25:19.950Z,87.87
2017-05-04T05:27:47.397Z,87.71
2017-05-04T05:30:14.840Z,87.65
2017-05-04T05:32:42.305Z,87.57
2017-05-04T05:35:09.752Z,87.33
2017-05-04T05:37:37.192Z,87.57
2017-05-04T05:40:04.662Z,87.63
2017-05-04T05:42:32.092Z,87.55
2017-05-04T05:44:59.529Z,87.72
2017-05-04T05:47:26.975Z,87.72
2017-05-04T05:49:54.413Z,87.80
2017-05-04T05:52:21.861Z,87.85
2017-05-04T05:54:49.322Z,87.86
2017-05-04T05:57:16.759Z,88.04
2017-05-04T05:59:44.197Z,87.98
2017-05-04T06:02:11.664Z,87.87
2017-05-04T06:04:39.105Z,87.74
2017-05-04T06:07:06.538Z,87.82
2017-05-04T06:09:34.002Z,88.18
2017-05-04T06:12:01.430Z,87.94
2017-05-04T06:14:28.874Z,88.30
2017-05-04T06:16:56.325Z,87.86
2017-05-04T06:19:23.762Z,87.79
2017-05-04T06:21:51.197Z,87.68
2017-05-04T06:24:18.663Z,87.93
2017-05-04T06:26:46.136Z,87.92
2017-05-04T06:29:13.575Z,87.69
2017-05-04T06:31:41.026Z,87.77
2017-05-04T06:34:08.462Z,87.83
2017-05-04T06:36:35.903Z,87.81
2017-05-04T06:39:03.382Z,87.69
2017-05-04T06:41:30.827Z,87.75
2017-05-04T06:43:58.286Z,87.94
2017-05-04T06:46:25.755Z,87.85
2017-05-04T06:48:53.230Z,87.94
2017-05-04T06:51:20.710Z,87.89
2017-05-04T06:53:48.207Z,88.18
2017-05-04T06:56:15.682Z,88.35
2017-05-04T06:58:43.167Z,88.51
2017-05-04T07:01:10.613Z,88.45
2017-05-04T07:03:38.075Z,88.62
2017-05-04T07:06:05.542Z,88.47
2017-05-04T07:08:33.005Z,88.62
2017-05-04T07:11:00.446Z,88.94
2017-05-04T07:13:28.713Z,88.96
2017-05-04T07:15:56.154Z,89.34
2017-05-04T07:18:23.591Z,89.13
2017-05-04T07:20:51.045Z,89.29
2017-05-04T07:23:18.486Z,89.69
2017-05-04T07:25:45.926Z,89.32
2017-05-04T07:28:13.390Z,89.69
2017-05-04T07:30:40.837Z,89.70
2017-05-04T07:33:08.275Z,89.55
2017-05-04T07:35:35.742Z,89.71
2017-05-04T07:38:03.199Z,89.75
2017-05-04T07:40:30.660Z,89.70
2017-05-04T07:42:58.142Z,89.70
2017-05-04T07:45:25.577Z,89.62
2017-05-04T07:47:53.037Z,89.65
2017-05-04T07:50:20.499Z,89.63
2017-05-04T07:52:47.965Z,89.62
2017-05-04T07:55:15.405Z,89.88
2017-05-04T07:57:42.864Z,89.96
2017-05-04T08:00:10.335Z,89.91
2017-05-04T08:02:37.783Z,90.10
2017-05-04T08:05:05.259Z,90.51
2017-05-04T08:07:32.706Z,90.32
2017-05-04T08:10:00.146Z,90.11
2017-05-04T08:12:28.601Z,89.75
2017-05-04T08:14:56.257Z,89.60
2017-05-04T08:17:23.700Z,89.52
2017-05-04T08:19:51.166Z,88.58
2017-05-04T08:22:18.609Z,88.29
2017-05-04T08:24:46.047Z,88.21
2017-05-04T08:27:13.523Z,88.09
2017-05-04T08:29:40.962Z,88.29
2017-05-04T08:32:08.393Z,87.23
2017-05-04T08:34:35.856Z,87.00
2017-05-04T08:37:03.297Z,86.68
2017-05-04T08:39:30.738Z,86.67
2017-05-04T08:41:58.193Z,86.68
2017-05-04T08:44:25.629Z,86.92
2017-05-04T08:46:53.057Z,86.98
2017-05-04T08:49:20.528Z,86.74
2017-05-04T08:51:47.962Z,86.91
2017-05-04T08:54:15.397Z,86.78
2017-05-04T08:56:42.858Z,86.89
2017-05-04T08:59:10.293Z,87.00
2017-05-04T09:01:37.734Z,86.97
2017-05-04T09:04:05.189Z,86.78
2017-05-04T09:06:32.624Z,86.80
2017-05-04T09:09:00.062Z,86.78
2017-05-04T09:11:27.532Z,87.01
2017-05-04T09:13:54.969Z,87.07
2017-05-04T09:16:22.401Z,86.82
2017-05-04T09:18:49.861Z,86.74
2017-05-04T09:21:17.294Z,86.66
2017-05-04T09:23:44.746Z,86.70
2017-05-04T09:26:12.202Z,86.99
2017-05-04T09:28:39.637Z,86.95
2017-05-04T09:31:07.079Z,87.09
2017-05-04T09:33:34.550Z,86.95
2017-05-04T09:36:01.986Z,86.97
2017-05-04T09:38:29.425Z,86.95
2017-05-04T09:40:56.871Z,86.67
2017-05-04T09:43:24.301Z,87.02
2017-05-04T09:45:51.738Z,86.80
2017-05-04T09:48:19.201Z,86.78
2017-05-04T09:50:46.631Z,86.61
2017-05-04T09:53:14.066Z,86.79
2017-05-04T09:55:41.526Z,86.81
2017-05-04T09:58:08.974Z,86.70
2017-05-04T10:00:36.405Z,86.92
2017-05-04T10:03:03.866Z,86.94
2017-05-04T10:05:31.310Z,86.99
2017-05-04T10:07:58.746Z,86.86
2017-05-04T10:10:26.210Z,86.73
2017-05-04T10:12:53.642Z,86.67
2017-05-04T10:15:21.080Z,86.76
2017-05-04T10:17:48.525Z,86.87
2017-05-04T10:20:15.958Z,86.79
2017-05-04T10:22:43.393Z,86.79
2017-05-04T10:25:10.857Z,86.65
2017-05-04T10:27:38.305Z,86.56
2017-05-04T10:30:06.495Z,86.29
2017-05-04T10:32:33.966Z,86.61
2017-05-04T10:35:01.406Z,86.29
2017-05-04T10:37:28.838Z,86.40
2017-05-04T10:39:56.287Z,86.36
2017-05-04T10:42:23.725Z,86.46
2017-05-04T10:44:51.162Z,86.35
2017-05-04T10:47:18.630Z,86.63
2017-05-04T10:49:46.073Z,86.64
2017-05-04T10:52:13.533Z,86.70
2017-05-04T10:54:40.978Z,86.66
2017-05-04T10:57:08.466Z,86.60
2017-05-04T10:59:35.922Z,86.57
2017-05-04T11:02:03.406Z,86.62
2017-05-04T11:04:30.846Z,86.93
2017-05-04T11:06:58.303Z,87.19
2017-05-04T11:09:25.759Z,87.14
2017-05-04T11:11:53.218Z,87.15
2017-05-04T11:14:20.658Z,87.22
2017-05-04T11:16:48.158Z,87.37
2017-05-04T11:19:15.606Z,87.35
2017-05-04T11:21:43.062Z,87.46
2017-05-04T11:24:10.606Z,87.57
2017-05-04T11:26:38.062Z,87.49
2017-05-04T11:29:05.538Z,87.66
2017-05-04T11:31:33.023Z,87.41
2017-05-04T11:34:00.466Z,87.79
2017-05-04T11:36:27.915Z,87.87
2017-05-04T11:38:55.382Z,87.92
2017-05-04T11:41:22.828Z,88.25
2017-05-04T11:43:50.289Z,88.05
2017-05-04T11:46:17.767Z,87.80
2017-05-04T11:48:45.238Z,87.93
2017-05-04T11:51:12.696Z,87.77
2017-05-04T11:53:41.095Z,87.67
2017-05-04T11:56:09.473Z,88.20
2017-05-04T11:58:36.945Z,88.30
2017-05-04T12:01:04.405Z,87.86
2017-05-04T12:03:31.858Z,89.23
2017-05-04T12:05:59.303Z,89.19
2017-05-04T12:08:26.763Z,88.66
2017-05-04T12:11:07.294Z,88.15
2017-05-04T12:13:34.774Z,87.80
2017-05-04T12:16:02.234Z,87.58
2017-05-04T12:18:29.721Z,87.49
2017-05-04T12:20:57.262Z,87.59
2017-05-04T12:23:24.760Z,87.55
2017-05-04T12:25:52.271Z,87.56
2017-05-04T12:28:19.842Z,87.57
2017-05-04T12:30:47.366Z,87.60
2017-05-04T12:33:14.846Z,87.58
2017-05-04T12:35:42.329Z,87.63
2017-05-04T12:38:09.842Z,87.66
2017-05-04T12:40:37.345Z,87.68
2017-05-04T12:43:04.870Z,87.73
2017-05-04T12:45:32.413Z,87.72
2017-05-04T12:47:59.935Z,87.69
2017-05-04T12:50:27.493Z,87.77
2017-05-04T12:52:54.980Z,87.81
2017-05-04T12:55:22.494Z,87.86
2017-05-04T12:57:50.032Z,87.82
2017-05-04T13:00:17.557Z,87.42
2017-05-04T13:02:45.131Z,87.65
2017-05-04T13:05:12.638Z,87.38
2017-05-04T13:07:40.131Z,87.54
2017-05-04T13:10:07.624Z,87.60
2017-05-04T13:12:35.144Z,87.75
2017-05-04T13:15:02.609Z,87.91
2017-05-04T13:17:30.106Z,87.87
2017-05-04T13:19:58.562Z,88.10
2017-05-04T13:22:26.018Z,88.10
2017-05-04T13:24:53.474Z,88.30
2017-05-04T13:27:21.006Z,88.35
2017-05-04T13:29:48.523Z,88.24
2017-05-04T13:32:16.075Z,88.40
2017-05-04T13:34:43.538Z,88.69
2017-05-04T13:37:10.990Z,88.53
2017-05-04T13:39:38.422Z,88.15
2017-05-04T13:42:11.769Z,88.03
2017-05-04T13:44:39.234Z,87.38
2017-05-04T13:47:06.814Z,87.33
2017-05-04T13:49:34.348Z,86.97
2017-05-04T13:52:01.890Z,87.25
2017-05-04T13:54:29.363Z,87.59
2017-05-04T13:56:56.854Z,87.78
2017-05-04T13:59:28.311Z,88.06
2017-05-04T14:01:55.858Z,88.48
2017-05-04T14:04:23.345Z,88.87
2017-05-04T14:09:48.146Z,89.58
2017-05-04T14:12:15.677Z,89.65
2017-05-04T14:14:43.117Z,89.73
2017-05-04T14:17:10.630Z,89.76
2017-05-04T14:19:38.186Z,90.00
2017-05-04T14:22:05.679Z,90.13
2017-05-04T14:24:33.186Z,90.53
2017-05-04T14:27:00.665Z,90.64
2017-05-04T14:29:28.151Z,90.71
2017-05-04T14:31:55.725Z,90.92
2017-05-04T14:34:23.230Z,91.50
2017-05-04T14:36:50.682Z,91.30
2017-05-04T14:39:18.172Z,91.56
2017-05-04T14:41:45.699Z,91.68
2017-05-04T14:44:13.147Z,91.72
2017-05-04T14:46:40.622Z,91.60
2017-05-04T14:49:08.070Z,91.49
2017-05-04T14:51:35.550Z,91.46
2017-05-04T14:54:03.025Z,91.51
2017-05-04T14:56:30.476Z,91.77
2017-05-04T14:58:57.922Z,92.01
2017-05-04T15:01:25.393Z,92.38
2017-05-04T15:03:52.850Z,91.59
2017-05-04T15:06:20.305Z,91.66
2017-05-04T15:08:47.790Z,90.80
2017-05-04T15:11:26.790Z,90.05
2017-05-04T15:13:54.266Z,89.62
2017-05-04T15:16:21.734Z,88.89
2017-05-04T15:18:49.186Z,88.19
2017-05-04T15:21:16.626Z,88.29
2017-05-04T15:23:49.630Z,88.18
2017-05-04T15:26:17.070Z,88.17
2017-05-04T15:28:44.520Z,87.74
2017-05-04T15:31:11.974Z,87.86
2017-05-04T15:33:39.425Z,88.06
2017-05-04T15:36:23.910Z,87.81
2017-05-04T15:38:51.479Z,88.23
2017-05-04T15:41:18.926Z,87.76
2017-05-04T15:43:46.379Z,87.61
2017-05-04T15:46:13.832Z,87.47
2017-05-04T15:48:41.322Z,87.83
2017-05-04T15:51:08.983Z,87.99
2017-05-04T15:53:36.418Z,87.98
2017-05-04T15:56:17.626Z,88.06
2017-05-04T15:58:45.071Z,87.90
2017-05-04T16:01:14.466Z,87.96
2017-05-04T16:03:41.931Z,87.58
2017-05-04T16:06:09.391Z,86.95
2017-05-04T16:08:36.826Z,87.23
2017-05-04T16:11:04.271Z,87.28
2017-05-04T16:13:31.734Z,87.45
2017-05-04T16:15:59.184Z,87.73
2017-05-04T16:18:26.852Z,87.59
2017-05-04T16:20:54.294Z,87.42
2017-05-04T16:23:21.753Z,87.03
2017-05-04T16:25:49.249Z,86.16
2017-05-04T16:28:16.696Z,85.83
2017-05-04T16:30:45.747Z,86.00
2017-05-04T16:33:13.193Z,86.39
2017-05-04T16:35:41.059Z,86.63
2017-05-04T16:38:08.536Z,86.84
2017-05-04T16:40:35.986Z,86.58
2017-05-04T16:43:03.450Z,86.20
2017-05-04T16:45:31.347Z,85.81
2017-05-04T16:47:58.804Z,86.09
2017-05-04T16:50:28.263Z,86.37
2017-05-04T16:52:55.723Z,86.55
2017-05-04T16:55:23.174Z,86.23
2017-05-04T16:57:50.619Z,85.71
2017-05-04T17:00:18.217Z,85.48
2017-05-04T17:02:45.752Z,85.76
2017-05-04T17:05:13.200Z,85.68
2017-05-04T17:07:40.654Z,85.85
2017-05-04T17:10:09.065Z,86.29
2017-05-04T17:12:36.595Z,86.28
2017-05-04T17:15:04.066Z,86.18
2017-05-04T17:17:31.514Z,86.02
2017-05-04T17:19:58.966Z,86.39
2017-05-04T17:22:26.435Z,86.43
2017-05-04T17:24:54.903Z,86.67
2017-05-04T17:27:22.421Z,87.03
2017-05-04T17:29:49.894Z,86.87
2017-05-04T17:32:17.360Z,86.64
2017-05-04T17:34:44.817Z,86.40
2017-05-04T17:37:12.278Z,86.27
2017-05-04T17:39:39.738Z,85.16
2017-05-04T17:42:07.200Z,85.58
2017-05-04T17:44:36.398Z,85.79
2017-05-04T17:47:03.857Z,85.35
2017-05-04T17:49:32.220Z,85.28
2017-05-04T17:51:59.679Z,85.43
2017-05-04T17:54:28.055Z,85.78
2017-05-04T17:56:55.511Z,85.98
2017-05-04T17:59:22.965Z,85.88
2017-05-04T18:01:51.365Z,85.57
2017-05-04T18:04:18.831Z,85.65
2017-05-04T18:06:46.265Z,85.59
2017-05-04T18:09:14.660Z,85.46
2017-05-04T18:11:42.100Z,85.43
2017-05-04T18:14:09.551Z,85.40
2017-05-04T18:16:36.997Z,85.63
2017-05-04T18:19:04.436Z,85.66
2017-05-04T18:21:31.918Z,84.84
2017-05-04T18:23:59.353Z,84.80
2017-05-04T18:26:26.783Z,84.92
2017-05-04T18:28:54.241Z,84.65
2017-05-04T18:31:21.682Z,85.02
2017-05-04T18:33:49.123Z,84.99
2017-05-04T18:36:17.295Z,85.14
2017-05-04T18:38:44.742Z,85.23
2017-05-04T18:41:12.181Z,85.01
2017-05-04T18:43:39.641Z,84.93
2017-05-04T18:46:07.074Z,85.23
2017-05-04T18:48:34.506Z,85.26
2017-05-04T18:51:01.963Z,85.36
2017-05-04T18:53:29.398Z,85.63
2017-05-04T18:55:56.837Z,85.39
2017-05-04T18:58:24.293Z,85.15
2017-05-04T19:00:51.766Z,85.16
2017-05-04T19:03:19.225Z,85.34
2017-05-04T19:05:46.703Z,85.62
2017-05-04T19:08:14.134Z,85.60
2017-05-04T19:10:41.573Z,85.54
2017-05-04T19:13:09.042Z,85.53
2017-05-04T19:15:36.474Z,85.85
2017-05-04T19:18:03.917Z,85.90
2017-05-04T19:20:31.382Z,85.53
2017-05-04T19:22:58.817Z,85.59
2017-05-04T19:25:26.253Z,85.83
2017-05-04T19:27:53.702Z,85.55
2017-05-04T19:30:21.140Z,85.57
2017-05-04T19:32:48.583Z,85.61
2017-05-04T19:35:16.042Z,85.39
2017-05-04T19:37:43.474Z,85.25
2017-05-04T19:40:10.919Z,85.65
2017-05-04T19:42:38.376Z,85.48
2017-05-04T19:45:05.813Z,85.59
2017-05-04T19:47:33.251Z,85.47
2017-05-04T19:50:00.713Z,85.16
2017-05-04T19:52:28.146Z,85.28
2017-05-04T19:54:55.585Z,85.26
2017-05-04T19:57:23.053Z,85.21
2017-05-04T19:59:50.490Z,85.39
2017-05-04T20:02:17.958Z,85.40
2017-05-04T20:04:45.421Z,85.64
2017-05-04T20:07:12.864Z,85.44
2017-05-04T20:09:40.305Z,85.59
2017-05-04T20:12:07.760Z,85.62
2017-05-04T20:14:35.189Z,85.44
2017-05-04T20:17:02.622Z,85.57
2017-05-04T20:19:30.077Z,85.23
2017-05-04T20:21:57.518Z,85.19
2017-05-04T20:24:24.969Z,85.31
2017-05-04T20:26:52.429Z,85.15
2017-05-04T20:29:19.869Z,85.07
2017-05-04T20:31:47.308Z,85.12
2017-05-04T20:34:14.761Z,84.83
2017-05-04T20:36:42.208Z,84.80
2017-05-04T20:39:09.648Z,84.88
2017-05-04T20:41:37.106Z,84.80
2017-05-04T20:44:06.008Z,84.77
2017-05-04T20:46:33.476Z,84.84
2017-05-04T20:49:00.934Z,84.69
2017-05-04T20:51:28.378Z,84.90
2017-05-04T20:53:55.802Z,84.68
2017-05-04T20:56:23.288Z,84.46
2017-05-04T20:58:50.726Z,84.49
2017-05-04T21:01:19.167Z,84.46
2017-05-04T21:03:46.621Z,84.33
2017-05-04T21:06:14.066Z,84.84
2017-05-04T21:08:41.505Z,84.55
2017-05-04T21:11:08.958Z,85.73
2017-05-04T21:13:38.269Z,85.10
2017-05-04T21:16:05.711Z,85.12
2017-05-04T21:18:33.169Z,84.96
2017-05-04T21:21:00.612Z,84.65
2017-05-04T21:23:28.058Z,84.18
2017-05-04T21:25:55.494Z,83.80
2017-05-04T21:28:22.949Z,83.80
2017-05-04T21:30:50.378Z,83.45
2017-05-04T21:33:17.826Z,83.32
2017-05-04T21:35:45.305Z,82.77
2017-05-04T21:38:12.761Z,82.78
2017-05-04T21:40:40.218Z,82.30
2017-05-04T21:43:07.678Z,82.28
2017-05-04T21:45:35.136Z,82.24
2017-05-04T21:48:02.612Z,82.25
2017-05-04T21:50:30.061Z,82.06
2017-05-04T21:52:57.501Z,82.11
2017-05-04T21:55:24.939Z,82.37
2017-05-04T21:57:52.398Z,82.31
2017-05-04T22:00:19.837Z,82.62
2017-05-04T22:02:47.282Z,82.65
2017-05-04T22:05:14.731Z,82.38
2017-05-04T22:07:42.170Z,82.30
2017-05-04T22:10:09.599Z,82.52
2017-05-04T22:12:37.057Z,82.23
2017-05-04T22:15:04.708Z,82.37
2017-05-04T22:17:32.137Z,82.23
2017-05-04T22:19:59.589Z,82.27
2017-05-04T22:22:27.026Z,82.25
2017-05-04T22:24:54.462Z,82.56
2017-05-04T22:27:21.918Z,82.39
2017-05-04T22:29:49.346Z,82.51
2017-05-04T22:32:16.778Z,82.28
2017-05-04T22:34:44.229Z,82.45
2017-05-04T22:37:11.685Z,82.67
2017-05-04T22:39:39.124Z,82.40
2017-05-04T22:42:06.579Z,82.51
2017-05-04T22:44:34.014Z,82.50
2017-05-04T22:47:01.441Z,82.61
2017-05-04T22:49:28.901Z,82.65
2017-05-04T22:51:56.335Z,82.85
2017-05-04T22:54:23.762Z,82.55
2017-05-04T22:56:51.249Z,82.75
2017-05-04T22:59:18.689Z,82.75
2017-05-04T23:01:46.177Z,82.88
2017-05-04T23:04:13.633Z,82.47
2017-05-04T23:06:41.074Z,82.79
2017-05-04T23:09:08.506Z,82.96
2017-05-04T23:11:35.973Z,82.75
2017-05-04T23:14:03.420Z,83.07
2017-05-04T23:16:30.865Z,83.13
2017-05-04T23:18:58.316Z,83.05
2017-05-04T23:21:25.752Z,82.92
2017-05-04T23:23:53.183Z,83.01
2017-05-04T23:26:20.645Z,82.95
2017-05-04T23:28:58.431Z,82.83
2017-05-04T23:31:25.902Z,82.96
2017-05-04T23:33:53.333Z,83.06
2017-05-04T23:36:20.769Z,83.00
2017-05-04T23:38:48.239Z,82.81
2017-05-04T23:41:15.669Z,83.15
2017-05-04T23:43:43.154Z,83.53
2017-05-04T23:46:10.606Z,83.14
2017-05-04T23:48:38.041Z,83.07
2017-05-04T23:51:05.480Z,83.28
2017-05-04T23:53:32.944Z,83.22
2017-05-04T23:56:00.392Z,83.39
2017-05-04T23:58:27.826Z,83.26
